createdAt,value
2023-01-03T00:00:01.691Z,30.98
2023-01-03T00:02:31.010Z,26.48
2023-01-03T00:05:00.155Z,28.58
2023-01-03T00:07:35.075Z,33.17
2023-01-03T00:10:10.266Z,30.05
2023-01-03T00:12:39.869Z,28.20
2023-01-03T00:15:09.337Z,29.30
2023-01-03T00:17:39.125Z,31.17
2023-01-03T00:20:09.111Z,30.88
2023-01-03T00:22:38.431Z,28.45
2023-01-03T00:25:07.641Z,26.00
2023-01-03T00:27:36.660Z,32.63
2023-01-03T00:30:06.052Z,30.02
2023-01-03T00:32:35.031Z,31.63
2023-01-03T00:35:05.454Z,29.30
2023-01-03T00:37:34.769Z,32.15
2023-01-03T00:40:04.300Z,27.73
2023-01-03T00:42:53.340Z,32.13
2023-01-03T00:45:25.424Z,28.17
2023-01-03T00:47:54.891Z,29.50
2023-01-03T00:50:23.846Z,26.20
2023-01-03T00:52:52.817Z,28.38
2023-01-03T00:55:21.750Z,27.60
2023-01-03T00:57:50.708Z,30.27
2023-01-03T01:00:20.127Z,27.02
2023-01-03T01:02:49.295Z,27.80
2023-01-03T01:05:18.622Z,33.08
2023-01-03T01:07:47.805Z,27.45
2023-01-03T01:10:21.640Z,26.73
2023-01-03T01:12:50.702Z,27.58
2023-01-03T01:15:19.716Z,27.05
2023-01-03T01:17:49.001Z,28.40
2023-01-03T01:20:18.739Z,27.33
2023-01-03T01:22:48.033Z,27.23
2023-01-03T01:25:17.084Z,30.95
2023-01-03T01:27:46.044Z,27.13
2023-01-03T01:30:15.016Z,37.15
2023-01-03T01:32:43.959Z,26.52
2023-01-03T01:35:12.941Z,27.30
2023-01-03T01:37:41.951Z,25.20
2023-01-03T01:40:11.622Z,26.27
2023-01-03T01:42:59.059Z,25.30
2023-01-03T01:45:28.073Z,25.90
2023-01-03T01:48:07.758Z,26.95
2023-01-03T01:50:55.127Z,31.10
2023-01-03T01:53:36.945Z,30.48
2023-01-03T01:56:14.832Z,23.27
2023-01-03T01:58:46.281Z,25.80
2023-01-03T02:01:18.904Z,24.52
2023-01-03T02:03:57.628Z,24.70
2023-01-03T02:06:26.943Z,22.77
2023-01-03T02:08:56.186Z,23.67
2023-01-03T02:11:28.337Z,18.70
2023-01-03T02:14:15.366Z,19.60
2023-01-03T02:16:59.523Z,21.20
2023-01-03T02:20:01.904Z,20.63
2023-01-03T02:22:41.615Z,19.40
2023-01-03T02:25:34.960Z,20.50
2023-01-03T02:28:13.045Z,19.48
2023-01-03T02:31:26.194Z,17.02
2023-01-03T02:34:42.117Z,18.30
2023-01-03T02:37:33.406Z,17.98
2023-01-03T02:40:21.970Z,18.63
2023-01-03T02:43:13.962Z,22.10
2023-01-03T02:46:02.737Z,18.52
2023-01-03T02:48:56.192Z,20.30
2023-01-03T02:51:42.732Z,21.55
2023-01-03T02:54:17.111Z,20.70
2023-01-03T02:56:51.627Z,16.95
2023-01-03T02:59:46.535Z,17.95
2023-01-03T03:02:17.698Z,20.55
2023-01-03T03:04:50.901Z,17.27
2023-01-03T03:07:35.586Z,19.83
2023-01-03T03:10:24.612Z,16.30
2023-01-03T03:13:15.726Z,18.48
2023-01-03T03:15:59.619Z,21.08
2023-01-03T03:18:53.324Z,20.75
2023-01-03T03:21:42.573Z,20.10
2023-01-03T03:24:41.838Z,18.65
2023-01-03T03:27:32.710Z,17.30
2023-01-03T03:30:04.683Z,19.65
2023-01-03T03:32:36.534Z,16.33
2023-01-03T03:35:09.541Z,23.02
2023-01-03T03:37:41.451Z,16.50
2023-01-03T03:40:30.461Z,14.98
2023-01-03T03:43:27.616Z,19.67
2023-01-03T03:46:08.306Z,15.70
2023-01-03T03:49:19.103Z,21.98
2023-01-03T03:51:51.176Z,17.48
2023-01-03T03:54:24.039Z,19.40
2023-01-03T03:57:14.278Z,17.05
2023-01-03T03:59:50.931Z,17.65
2023-01-03T04:02:21.651Z,13.70
2023-01-03T04:04:56.578Z,19.95
2023-01-03T04:07:25.643Z,16.27
2023-01-03T04:09:54.881Z,14.40
2023-01-03T04:12:23.908Z,13.15
2023-01-03T04:14:52.939Z,15.00
2023-01-03T04:17:22.197Z,16.48
2023-01-03T04:19:51.193Z,15.57
2023-01-03T04:22:20.244Z,19.90
2023-01-03T04:24:49.305Z,26.38
2023-01-03T04:27:18.281Z,20.10
2023-01-03T04:29:47.334Z,23.95
2023-01-03T04:32:16.399Z,17.85
2023-01-03T04:34:45.392Z,17.05
2023-01-03T04:37:19.012Z,13.35
2023-01-03T04:39:48.468Z,24.42
2023-01-03T04:42:35.800Z,14.95
2023-01-03T04:45:05.918Z,15.50
2023-01-03T04:47:34.916Z,16.15
2023-01-03T04:50:03.997Z,13.75
2023-01-03T04:52:33.236Z,14.70
2023-01-03T04:55:02.628Z,18.15
2023-01-03T04:57:31.636Z,14.75
2023-01-03T05:00:00.670Z,13.82
2023-01-03T05:02:29.703Z,12.45
2023-01-03T05:04:58.791Z,12.38
2023-01-03T05:07:30.054Z,15.20
2023-01-03T05:09:59.080Z,13.65
2023-01-03T05:12:28.766Z,13.15
2023-01-03T05:14:57.840Z,11.10
2023-01-03T05:17:26.907Z,15.98
2023-01-03T05:20:13.984Z,9.77
2023-01-03T05:23:01.193Z,14.07
2023-01-03T05:25:48.227Z,12.98
2023-01-03T05:28:17.882Z,9.60
2023-01-03T05:30:46.988Z,10.80
2023-01-03T05:33:16.035Z,12.82
2023-01-03T05:35:48.759Z,10.02
2023-01-03T05:38:18.001Z,13.07
2023-01-03T05:40:46.991Z,9.85
2023-01-03T05:43:15.929Z,10.80
2023-01-03T05:45:44.993Z,10.85
2023-01-03T05:48:14.052Z,9.43
2023-01-03T05:50:43.091Z,15.05
2023-01-03T05:53:12.109Z,10.88
2023-01-03T05:55:41.520Z,13.65
2023-01-03T05:58:13.506Z,10.38
2023-01-03T06:00:42.513Z,12.70
2023-01-03T06:03:11.600Z,12.60
2023-01-03T06:05:46.136Z,10.90
2023-01-03T06:08:19.072Z,10.48
2023-01-03T06:10:48.265Z,10.77
2023-01-03T06:13:17.603Z,13.07
2023-01-03T06:16:06.358Z,9.93
2023-01-03T06:18:36.997Z,8.93
2023-01-03T06:21:07.967Z,9.77
2023-01-03T06:23:36.917Z,11.82
2023-01-03T06:26:06.698Z,11.18
2023-01-03T06:28:35.700Z,9.15
2023-01-03T06:31:07.184Z,9.27
2023-01-03T06:33:36.461Z,8.93
2023-01-03T06:36:08.316Z,10.48
2023-01-03T06:38:37.487Z,10.25
2023-01-03T06:41:07.130Z,12.93
2023-01-03T06:43:36.364Z,11.35
2023-01-03T06:46:23.976Z,9.38
2023-01-03T06:49:11.185Z,8.95
2023-01-03T06:51:58.482Z,7.72
2023-01-03T06:54:30.574Z,5.70
2023-01-03T06:57:00.351Z,4.95
2023-01-03T06:59:29.870Z,5.10
2023-01-03T07:01:59.297Z,5.72
2023-01-03T07:04:28.943Z,10.32
2023-01-03T07:06:58.137Z,7.00
2023-01-03T07:09:27.151Z,7.82
2023-01-03T07:11:56.125Z,8.75
2023-01-03T07:14:25.176Z,5.07
2023-01-03T07:16:54.135Z,6.93
2023-01-03T07:19:23.071Z,8.52
2023-01-03T07:21:52.033Z,9.43
2023-01-03T07:24:21.037Z,5.40
2023-01-03T07:26:50.030Z,12.50
2023-01-03T07:29:19.023Z,5.43
2023-01-03T07:31:48.014Z,6.05
2023-01-03T07:34:17.818Z,6.05
2023-01-03T07:36:46.853Z,11.05
2023-01-03T07:39:16.153Z,6.25
2023-01-03T07:42:06.610Z,5.30
2023-01-03T07:44:35.649Z,6.03
2023-01-03T07:47:05.659Z,8.90
2023-01-03T07:49:34.637Z,5.20
2023-01-03T07:52:06.029Z,6.55
2023-01-03T07:54:35.105Z,10.82
2023-01-03T07:57:04.121Z,7.32
2023-01-03T07:59:33.050Z,12.05
2023-01-03T08:02:02.313Z,9.32
2023-01-03T08:04:31.565Z,9.20
2023-01-03T08:07:00.579Z,8.70
2023-01-03T08:09:47.709Z,4.47
2023-01-03T08:12:35.026Z,5.53
2023-01-03T08:15:04.041Z,6.47
2023-01-03T08:17:33.040Z,5.63
2023-01-03T08:20:02.953Z,5.97
2023-01-03T08:22:31.989Z,6.63
2023-01-03T08:25:00.943Z,8.55
2023-01-03T08:27:29.943Z,7.43
2023-01-03T08:29:58.920Z,7.55
2023-01-03T08:32:28.236Z,7.82
2023-01-03T08:34:57.371Z,5.25
2023-01-03T08:37:26.351Z,5.47
2023-01-03T08:40:00.356Z,4.13
2023-01-03T08:42:29.712Z,6.15
2023-01-03T08:45:09.637Z,5.53
2023-01-03T08:47:38.986Z,7.25
2023-01-03T08:50:08.376Z,5.63
2023-01-03T08:52:37.762Z,6.57
2023-01-03T08:55:07.512Z,4.57
2023-01-03T08:57:36.518Z,4.72
2023-01-03T09:00:06.832Z,5.47
2023-01-03T09:02:37.345Z,3.72
2023-01-03T09:05:06.654Z,4.00
2023-01-03T09:07:35.750Z,6.35
2023-01-03T09:10:04.968Z,7.82
2023-01-03T09:12:33.928Z,6.35
2023-01-03T09:15:03.180Z,4.80
2023-01-03T09:17:32.227Z,8.40
2023-01-03T09:20:01.278Z,8.00
2023-01-03T09:22:30.438Z,6.10
2023-01-03T09:24:59.446Z,8.13
2023-01-03T09:27:28.770Z,7.65
2023-01-03T09:29:57.761Z,9.82
2023-01-03T09:32:26.799Z,5.07
2023-01-03T09:34:55.866Z,9.43
2023-01-03T09:37:25.162Z,8.07
2023-01-03T09:39:54.257Z,15.98
2023-01-03T09:42:44.935Z,13.80
2023-01-03T09:45:23.256Z,6.90
2023-01-03T09:47:52.301Z,6.72
2023-01-03T09:50:50.250Z,10.13
2023-01-03T09:53:57.810Z,7.78
2023-01-03T09:56:26.980Z,8.32
2023-01-03T09:59:24.982Z,6.63
2023-01-03T10:02:19.805Z,8.10
2023-01-03T10:05:23.494Z,9.55
2023-01-03T10:08:06.977Z,7.78
2023-01-03T10:10:52.168Z,8.63
2023-01-03T10:13:35.602Z,9.43
2023-01-03T10:16:29.192Z,6.63
2023-01-03T10:19:04.241Z,8.33
2023-01-03T10:22:08.579Z,7.78
2023-01-03T10:24:49.052Z,16.15
2023-01-03T10:27:23.151Z,8.20
2023-01-03T10:29:56.937Z,9.05
2023-01-03T10:32:57.161Z,11.13
2023-01-03T10:35:31.158Z,13.05
2023-01-03T10:38:00.964Z,7.00
2023-01-03T10:40:41.657Z,10.35
2023-01-03T10:43:30.760Z,11.38
2023-01-03T10:46:05.481Z,10.23
2023-01-03T10:49:25.390Z,10.73
2023-01-03T10:51:43.112Z,12.38
2023-01-03T10:54:22.076Z,12.00
2023-01-03T10:56:52.282Z,8.32
2023-01-03T10:59:31.968Z,11.73
2023-01-03T11:02:16.184Z,11.45
2023-01-03T11:04:46.220Z,15.18
2023-01-03T11:07:17.933Z,10.85
2023-01-03T11:09:54.571Z,11.27
2023-01-03T11:12:37.392Z,8.73
2023-01-03T11:15:37.806Z,10.38
2023-01-03T11:18:19.564Z,10.88
2023-01-03T11:20:54.333Z,11.27
2023-01-03T11:23:41.815Z,9.52
2023-01-03T11:26:24.650Z,12.63
2023-01-03T11:29:15.001Z,9.38
2023-01-03T11:32:25.362Z,12.52
2023-01-03T11:35:24.510Z,9.88
2023-01-03T11:38:37.137Z,10.82
2023-01-03T11:49:44.166Z,7.28
2023-01-03T11:52:39.208Z,10.55
2023-01-03T11:55:45.785Z,8.75
2023-01-03T11:58:37.762Z,10.40
2023-01-03T12:01:26.024Z,12.00
2023-01-03T12:04:01.057Z,21.23
2023-01-03T12:06:45.822Z,12.90
2023-01-03T12:09:33.258Z,9.25
2023-01-03T12:12:33.369Z,9.63
2023-01-03T12:15:28.892Z,9.10
2023-01-03T12:18:35.165Z,9.38
2023-01-03T12:21:21.967Z,10.80
2023-01-03T12:29:56.712Z,12.52
2023-01-03T12:35:45.405Z,10.82
2023-01-03T12:38:14.520Z,10.52
2023-01-03T12:41:19.721Z,9.90
2023-01-03T12:43:56.441Z,9.25
2023-01-03T12:46:35.078Z,12.10
2023-01-03T12:49:17.414Z,11.82
2023-01-03T12:51:46.698Z,15.45
2023-01-03T12:54:44.161Z,11.40
2023-01-03T12:57:19.153Z,10.48
2023-01-03T13:00:06.016Z,23.67
2023-01-03T13:03:01.205Z,18.00
2023-01-03T13:05:43.844Z,19.05
2023-01-03T13:08:34.268Z,19.08
2023-01-03T13:16:43.486Z,9.57
2023-01-03T13:19:38.455Z,11.30
2023-01-03T13:22:20.997Z,10.75
2023-01-03T13:24:55.367Z,10.77
2023-01-03T13:27:37.272Z,8.10
2023-01-03T13:30:23.723Z,10.35
2023-01-03T13:33:16.706Z,15.98
2023-01-03T13:35:45.805Z,12.52
2023-01-03T13:38:27.927Z,16.02
2023-01-03T13:41:34.387Z,7.63
2023-01-03T13:44:29.591Z,12.95
2023-01-03T13:47:00.475Z,10.18
2023-01-03T13:49:30.987Z,8.80
2023-01-03T13:52:06.504Z,9.88
2023-01-03T13:55:00.136Z,9.27
2023-01-03T14:00:15.801Z,12.23
2023-01-03T14:05:45.150Z,17.10
2023-01-03T14:16:40.041Z,11.02
2023-01-03T14:22:26.618Z,12.90
2023-01-03T14:30:38.860Z,13.38
2023-01-03T14:33:16.087Z,15.43
2023-01-03T14:35:45.876Z,16.98
2023-01-03T14:41:08.959Z,11.25
2023-01-03T15:01:35.007Z,12.35
2023-01-03T15:04:04.571Z,12.02
2023-01-03T15:06:34.779Z,9.45
2023-01-03T15:28:51.338Z,11.93
2023-01-03T15:31:32.171Z,9.35
2023-01-03T15:45:37.883Z,8.82
2023-01-03T15:48:20.132Z,11.85
2023-01-03T15:50:53.751Z,10.70
2023-01-03T15:56:16.950Z,9.18
2023-01-03T15:58:46.907Z,10.82
2023-01-03T16:01:17.325Z,10.90
2023-01-03T16:03:46.701Z,7.25
2023-01-03T16:06:17.737Z,11.98
2023-01-03T16:11:33.860Z,8.18
2023-01-03T16:14:11.580Z,12.38
2023-01-03T16:22:33.841Z,10.75
2023-01-03T16:24:56.550Z,11.05
2023-01-03T16:30:15.166Z,9.43
2023-01-03T16:32:44.296Z,7.93
2023-01-03T16:35:22.612Z,7.65
2023-01-03T16:40:27.042Z,8.10
2023-01-03T16:42:56.008Z,7.82
2023-01-03T16:48:01.242Z,9.45
2023-01-03T16:50:35.635Z,8.38
2023-01-03T16:53:07.805Z,7.72
2023-01-03T16:58:16.746Z,5.03
2023-01-03T17:00:45.807Z,8.15
2023-01-03T17:03:14.935Z,7.55
2023-01-03T17:05:44.262Z,8.00
2023-01-03T17:08:26.456Z,6.22
2023-01-03T17:10:58.154Z,7.50
2023-01-03T17:13:33.233Z,4.90
2023-01-03T17:16:04.150Z,4.72
2023-01-03T17:18:39.705Z,5.93
2023-01-03T17:21:36.254Z,5.60
2023-01-03T17:24:13.861Z,8.68
2023-01-03T17:26:42.883Z,6.35
2023-01-03T17:29:25.499Z,10.05
2023-01-03T17:34:38.190Z,5.13
2023-01-03T17:37:07.335Z,8.20
2023-01-03T17:39:36.309Z,7.82
2023-01-03T17:42:19.996Z,5.03
2023-01-03T17:45:09.488Z,5.23
2023-01-03T17:48:01.671Z,4.95
2023-01-03T17:50:34.366Z,7.22
2023-01-03T17:55:56.894Z,8.10
2023-01-03T17:58:34.919Z,6.53
2023-01-03T18:01:04.808Z,5.82
2023-01-03T18:03:34.072Z,8.52
2023-01-03T18:06:15.307Z,6.28
2023-01-03T18:08:44.816Z,4.72
2023-01-03T18:11:36.628Z,6.30
2023-01-03T18:14:07.137Z,5.28
2023-01-03T18:16:36.245Z,6.00
2023-01-03T18:19:05.635Z,6.75
2023-01-03T18:21:35.665Z,8.15
2023-01-03T18:24:23.406Z,6.97
2023-01-03T18:29:44.025Z,10.55
2023-01-03T18:32:29.307Z,6.97
2023-01-03T18:34:58.970Z,5.60
2023-01-03T18:37:38.657Z,5.68
2023-01-03T18:40:09.691Z,9.23
2023-01-03T18:42:57.031Z,6.70
2023-01-03T18:45:26.093Z,5.95
2023-01-03T18:47:55.129Z,10.02
2023-01-03T18:50:24.373Z,6.05
2023-01-03T18:52:54.158Z,5.43
2023-01-03T18:55:28.412Z,4.55
2023-01-03T18:57:59.837Z,4.25
2023-01-03T19:03:28.110Z,10.07
2023-01-03T19:05:57.722Z,3.72
2023-01-03T19:11:49.408Z,6.63
2023-01-03T19:17:17.182Z,7.63
2023-01-03T19:19:46.399Z,5.55
2023-01-03T19:22:36.968Z,7.93
2023-01-03T19:25:14.659Z,5.15
2023-01-03T19:27:46.443Z,5.85
2023-01-03T19:30:40.560Z,5.18
2023-01-03T19:33:15.648Z,5.82
2023-01-03T19:35:45.683Z,8.20
2023-01-03T19:38:14.727Z,8.85
2023-01-03T19:40:46.492Z,7.95
2023-01-03T19:43:34.205Z,5.93
2023-01-03T19:46:03.465Z,5.82
2023-01-03T19:48:32.542Z,5.00
2023-01-03T19:51:01.813Z,8.07
2023-01-03T19:53:30.817Z,5.47
2023-01-03T19:56:00.124Z,4.80
2023-01-03T19:58:33.818Z,5.38
2023-01-03T20:01:03.136Z,5.75
2023-01-03T20:03:36.492Z,5.70
2023-01-03T20:06:06.056Z,5.07
2023-01-03T20:08:35.144Z,5.53
2023-01-03T20:11:04.982Z,5.25
2023-01-03T20:13:35.024Z,3.75
2023-01-03T20:16:04.806Z,6.90
2023-01-03T20:18:38.121Z,7.07
2023-01-03T20:21:30.177Z,7.47
2023-01-03T20:24:02.824Z,5.38
2023-01-03T20:26:34.985Z,6.63
2023-01-03T20:29:04.126Z,6.63
2023-01-03T20:31:33.195Z,3.90
2023-01-03T20:34:02.257Z,11.38
2023-01-03T20:36:37.770Z,5.97
2023-01-03T20:39:07.928Z,5.28
2023-01-03T20:41:39.416Z,6.43
2023-01-03T20:44:11.338Z,6.80
2023-01-03T20:46:40.963Z,5.28
2023-01-03T20:49:18.615Z,5.05
2023-01-03T20:51:47.993Z,6.45
2023-01-03T20:54:17.227Z,5.70
2023-01-03T20:56:46.817Z,7.50
2023-01-03T20:59:20.775Z,6.00
2023-01-03T21:01:50.391Z,5.28
2023-01-03T21:04:19.712Z,7.00
2023-01-03T21:06:49.887Z,7.15
2023-01-03T21:09:18.855Z,7.35
2023-01-03T21:11:48.413Z,6.10
2023-01-03T21:14:17.476Z,6.85
2023-01-03T21:16:50.566Z,6.63
2023-01-03T21:19:21.041Z,9.48
2023-01-03T21:21:52.307Z,4.88
2023-01-03T21:24:24.095Z,9.32
2023-01-03T21:26:53.195Z,8.48
2023-01-03T21:29:23.079Z,7.32
2023-01-03T21:31:52.203Z,6.53
2023-01-03T21:34:23.030Z,11.73
2023-01-03T21:36:52.090Z,7.70
2023-01-03T21:39:21.021Z,7.28
2023-01-03T21:42:18.865Z,11.00
2023-01-03T21:44:47.797Z,6.65
2023-01-03T21:47:16.751Z,7.95
2023-01-03T21:49:45.729Z,7.35
2023-01-03T21:52:15.256Z,8.00
2023-01-03T21:54:44.364Z,6.93
2023-01-03T21:57:17.683Z,7.55
2023-01-03T21:59:49.991Z,7.55
2023-01-03T22:02:37.506Z,9.75
2023-01-03T22:05:07.090Z,13.93
2023-01-03T22:07:36.321Z,13.70
2023-01-03T22:10:17.372Z,15.30
2023-01-03T22:12:51.949Z,16.50
2023-01-03T22:15:21.409Z,9.75
2023-01-03T22:17:50.533Z,10.70
2023-01-03T22:20:22.076Z,8.50
2023-01-03T22:22:51.701Z,6.97
2023-01-03T22:25:23.578Z,8.20
2023-01-03T22:27:58.354Z,11.63
2023-01-03T22:30:27.390Z,12.32
2023-01-03T22:32:58.871Z,13.07
2023-01-03T22:35:28.019Z,14.35
2023-01-03T22:37:58.087Z,9.75
2023-01-03T22:40:27.047Z,11.30
2023-01-03T22:42:56.911Z,19.75
2023-01-03T22:45:26.019Z,26.02
2023-01-03T22:47:55.135Z,18.83
2023-01-03T22:50:24.174Z,11.35
2023-01-03T22:52:53.176Z,10.68
2023-01-03T22:55:25.440Z,11.70
2023-01-03T22:57:57.340Z,10.77
2023-01-03T23:00:26.366Z,8.52
2023-01-03T23:02:55.389Z,15.68
2023-01-03T23:05:24.719Z,11.93
2023-01-03T23:07:53.747Z,8.85
2023-01-03T23:10:23.318Z,12.68
2023-01-03T23:15:39.113Z,15.40
2023-01-03T23:18:08.045Z,14.02
2023-01-03T23:20:37.584Z,11.48
2023-01-03T23:23:07.080Z,13.45
2023-01-03T23:28:11.497Z,13.68
2023-01-03T23:30:40.688Z,13.40
2023-01-03T23:33:09.836Z,11.27
2023-01-03T23:35:40.026Z,12.02
2023-01-03T23:38:09.119Z,14.55
2023-01-03T23:40:42.513Z,11.65
2023-01-03T23:43:12.209Z,16.90
2023-01-03T23:45:41.262Z,12.52
2023-01-03T23:48:10.238Z,11.05
2023-01-03T23:50:39.452Z,15.85
2023-01-03T23:53:08.332Z,14.93
2023-01-03T23:55:38.454Z,12.82
2023-01-03T23:58:07.484Z,14.77
